sensor_id;sensor_type;location;lat;lon;timestamp;pressure;altitude;pressure_sealevel;temperature;humidity
76260;BME280;65076;52.362;6.588;2023-07-29T00:00:57;100699.44;;;21.35;75.47
76260;BME280;65076;52.362;6.588;2023-07-29T00:03:26;100699.84;;;21.21;75.09
76260;BME280;65076;52.362;6.588;2023-07-29T00:05:56;100686.78;;;21.52;74.69
76260;BME280;65076;52.362;6.588;2023-07-29T00:08:24;100686.06;;;21.50;74.68
76260;BME280;65076;52.362;6.588;2023-07-29T00:10:54;100689.53;;;21.52;74.15
76260;BME280;65076;52.362;6.588;2023-07-29T00:13:22;100678.84;;;21.39;74.71
76260;BME280;65076;52.362;6.588;2023-07-29T00:15:52;100673.16;;;21.60;73.94
76260;BME280;65076;52.362;6.588;2023-07-29T00:18:21;100662.84;;;21.62;73.40
76260;BME280;65076;52.362;6.588;2023-07-29T00:20:49;100675.50;;;21.26;74.86
76260;BME280;65076;52.362;6.588;2023-07-29T00:23:17;100673.47;;;20.99;74.96
76260;BME280;65076;52.362;6.588;2023-07-29T00:25:46;100668.56;;;21.32;74.72
76260;BME280;65076;52.362;6.588;2023-07-29T00:28:16;100665.34;;;21.46;74.07
76260;BME280;65076;52.362;6.588;2023-07-29T00:30:48;100670.31;;;21.23;74.54
76260;BME280;65076;52.362;6.588;2023-07-29T00:33:16;100676.38;;;21.36;74.81
76260;BME280;65076;52.362;6.588;2023-07-29T00:35:46;100670.16;;;20.86;75.97
76260;BME280;65076;52.362;6.588;2023-07-29T00:38:14;100683.75;;;20.97;76.45
76260;BME280;65076;52.362;6.588;2023-07-29T00:40:42;100676.09;;;20.82;77.14
76260;BME280;65076;52.362;6.588;2023-07-29T00:43:10;100672.19;;;21.03;75.81
76260;BME280;65076;52.362;6.588;2023-07-29T00:45:43;100672.28;;;20.73;77.02
76260;BME280;65076;52.362;6.588;2023-07-29T00:48:12;100666.81;;;21.21;76.43
76260;BME280;65076;52.362;6.588;2023-07-29T00:50:40;100670.16;;;20.77;76.27
76260;BME280;65076;52.362;6.588;2023-07-29T00:53:08;100667.38;;;20.96;77.14
76260;BME280;65076;52.362;6.588;2023-07-29T00:55:35;100663.47;;;20.69;77.13
76260;BME280;65076;52.362;6.588;2023-07-29T00:58:04;100660.75;;;20.98;76.30
76260;BME280;65076;52.362;6.588;2023-07-29T01:00:32;100661.63;;;21.18;75.59
76260;BME280;65076;52.362;6.588;2023-07-29T01:03:01;100655.38;;;21.16;75.12
76260;BME280;65076;52.362;6.588;2023-07-29T01:05:35;100648.13;;;21.34;74.92
76260;BME280;65076;52.362;6.588;2023-07-29T01:08:20;100656.09;;;20.99;76.20
76260;BME280;65076;52.362;6.588;2023-07-29T01:10:57;100662.47;;;21.09;75.45
76260;BME280;65076;52.362;6.588;2023-07-29T01:13:35;100657.84;;;20.21;79.21
76260;BME280;65076;52.362;6.588;2023-07-29T01:16:13;100645.38;;;20.77;77.95
76260;BME280;65076;52.362;6.588;2023-07-29T01:18:50;100650.28;;;20.63;77.81
76260;BME280;65076;52.362;6.588;2023-07-29T01:21:22;100640.91;;;20.66;77.93
76260;BME280;65076;52.362;6.588;2023-07-29T01:23:53;100652.03;;;20.74;76.65
76260;BME280;65076;52.362;6.588;2023-07-29T01:26:26;100643.94;;;20.73;77.46
76260;BME280;65076;52.362;6.588;2023-07-29T01:28:56;100644.81;;;20.83;76.34
76260;BME280;65076;52.362;6.588;2023-07-29T01:31:30;100643.91;;;20.63;77.62
76260;BME280;65076;52.362;6.588;2023-07-29T01:34:07;100646.84;;;20.71;76.63
76260;BME280;65076;52.362;6.588;2023-07-29T01:36:41;100655.41;;;19.88;78.46
76260;BME280;65076;52.362;6.588;2023-07-29T01:39:16;100656.97;;;20.21;79.03
76260;BME280;65076;52.362;6.588;2023-07-29T01:41:49;100653.75;;;20.56;77.04
76260;BME280;65076;52.362;6.588;2023-07-29T01:44:18;100651.28;;;20.62;76.31
76260;BME280;65076;52.362;6.588;2023-07-29T01:46:47;100650.84;;;20.48;76.60
76260;BME280;65076;52.362;6.588;2023-07-29T01:49:14;100653.53;;;20.28;76.64
76260;BME280;65076;52.362;6.588;2023-07-29T01:51:42;100650.72;;;20.49;76.23
76260;BME280;65076;52.362;6.588;2023-07-29T01:54:11;100645.78;;;20.62;76.06
76260;BME280;65076;52.362;6.588;2023-07-29T01:56:40;100642.03;;;20.63;75.63
76260;BME280;65076;52.362;6.588;2023-07-29T01:59:08;100639.03;;;20.66;75.59
76260;BME280;65076;52.362;6.588;2023-07-29T02:01:36;100637.00;;;20.19;77.20
76260;BME280;65076;52.362;6.588;2023-07-29T02:04:04;100647.81;;;20.11;77.96
76260;BME280;65076;52.362;6.588;2023-07-29T02:06:32;100647.56;;;19.53;80.11
76260;BME280;65076;52.362;6.588;2023-07-29T02:09:00;100644.19;;;20.10;78.90
76260;BME280;65076;52.362;6.588;2023-07-29T02:11:30;100629.53;;;19.91;78.99
76260;BME280;65076;52.362;6.588;2023-07-29T02:14:00;100629.19;;;20.14;77.41
76260;BME280;65076;52.362;6.588;2023-07-29T02:16:28;100611.94;;;20.03;78.46
76260;BME280;65076;52.362;6.588;2023-07-29T02:18:56;100620.16;;;20.43;76.71
76260;BME280;65076;52.362;6.588;2023-07-29T02:21:24;100605.97;;;20.47;76.53
76260;BME280;65076;52.362;6.588;2023-07-29T02:23:52;100603.84;;;20.60;76.17
76260;BME280;65076;52.362;6.588;2023-07-29T02:26:20;100601.97;;;20.51;76.05
76260;BME280;65076;52.362;6.588;2023-07-29T02:28:48;100606.72;;;20.68;75.98
76260;BME280;65076;52.362;6.588;2023-07-29T02:31:20;100624.78;;;19.93;77.68
76260;BME280;65076;52.362;6.588;2023-07-29T02:33:50;100626.66;;;20.32;77.06
76260;BME280;65076;52.362;6.588;2023-07-29T02:36:19;100627.84;;;20.39;76.21
76260;BME280;65076;52.362;6.588;2023-07-29T02:38:47;100630.84;;;20.36;75.60
76260;BME280;65076;52.362;6.588;2023-07-29T02:41:15;100629.44;;;19.62;79.23
76260;BME280;65076;52.362;6.588;2023-07-29T02:43:47;100632.09;;;19.31;81.00
76260;BME280;65076;52.362;6.588;2023-07-29T02:46:17;100626.38;;;19.65;80.69
76260;BME280;65076;52.362;6.588;2023-07-29T02:48:46;100618.97;;;19.86;78.59
76260;BME280;65076;52.362;6.588;2023-07-29T02:51:14;100631.53;;;20.19;nan
76260;BME280;65076;52.362;6.588;2023-07-29T02:53:42;100634.59;;;19.95;78.83
76260;BME280;65076;52.362;6.588;2023-07-29T02:56:10;100620.22;;;19.72;79.58
76260;BME280;65076;52.362;6.588;2023-07-29T02:58:38;100625.22;;;19.98;78.16
76260;BME280;65076;52.362;6.588;2023-07-29T03:01:06;100623.22;;;20.40;76.82
76260;BME280;65076;52.362;6.588;2023-07-29T03:03:35;100619.38;;;19.81;77.24
76260;BME280;65076;52.362;6.588;2023-07-29T03:06:04;100625.59;;;19.53;79.68
76260;BME280;65076;52.362;6.588;2023-07-29T03:08:34;100628.34;;;19.53;80.45
76260;BME280;65076;52.362;6.588;2023-07-29T03:11:05;100627.88;;;19.48;80.14
76260;BME280;65076;52.362;6.588;2023-07-29T03:13:34;100628.25;;;19.95;77.94
76260;BME280;65076;52.362;6.588;2023-07-29T03:16:06;100622.03;;;19.93;77.95
76260;BME280;65076;52.362;6.588;2023-07-29T03:18:36;100615.09;;;20.38;77.17
76260;BME280;65076;52.362;6.588;2023-07-29T03:21:05;100612.03;;;20.41;76.23
76260;BME280;65076;52.362;6.588;2023-07-29T03:23:34;100613.97;;;20.41;76.23
76260;BME280;65076;52.362;6.588;2023-07-29T03:26:03;100613.09;;;20.59;75.38
76260;BME280;65076;52.362;6.588;2023-07-29T03:28:39;100615.09;;;20.57;74.86
76260;BME280;65076;52.362;6.588;2023-07-29T03:31:09;100620.44;;;20.00;76.18
76260;BME280;65076;52.362;6.588;2023-07-29T03:33:39;100618.56;;;20.00;76.87
76260;BME280;65076;52.362;6.588;2023-07-29T03:36:07;100611.34;;;19.59;77.79
76260;BME280;65076;52.362;6.588;2023-07-29T03:38:35;100611.78;;;19.64;79.11
76260;BME280;65076;52.362;6.588;2023-07-29T03:41:07;100609.53;;;20.19;77.93
76260;BME280;65076;52.362;6.588;2023-07-29T03:43:36;100605.94;;;20.28;76.19
76260;BME280;65076;52.362;6.588;2023-07-29T03:46:04;100596.16;;;20.35;75.94
76260;BME280;65076;52.362;6.588;2023-07-29T03:48:36;100594.84;;;20.39;75.15
76260;BME280;65076;52.362;6.588;2023-07-29T03:51:06;100595.44;;;20.52;75.13
76260;BME280;65076;52.362;6.588;2023-07-29T03:53:34;100596.59;;;20.50;74.07
76260;BME280;65076;52.362;6.588;2023-07-29T03:56:02;100602.41;;;20.56;73.98
76260;BME280;65076;52.362;6.588;2023-07-29T03:58:30;100602.84;;;20.71;73.68
76260;BME280;65076;52.362;6.588;2023-07-29T04:00:58;100603.06;;;20.29;75.11
76260;BME280;65076;52.362;6.588;2023-07-29T04:03:25;100601.22;;;20.59;74.18
76260;BME280;65076;52.362;6.588;2023-07-29T04:05:54;100602.53;;;20.74;74.11
76260;BME280;65076;52.362;6.588;2023-07-29T04:08:23;100606.56;;;20.41;74.01
76260;BME280;65076;52.362;6.588;2023-07-29T04:10:52;100592.88;;;20.11;75.90
76260;BME280;65076;52.362;6.588;2023-07-29T04:13:20;100592.94;;;20.30;75.76
76260;BME280;65076;52.362;6.588;2023-07-29T04:15:48;100591.47;;;19.76;77.71
76260;BME280;65076;52.362;6.588;2023-07-29T04:18:16;100594.34;;;19.75;77.99
76260;BME280;65076;52.362;6.588;2023-07-29T04:20:44;100586.34;;;19.93;76.74
76260;BME280;65076;52.362;6.588;2023-07-29T04:23:12;100592.28;;;19.98;77.04
76260;BME280;65076;52.362;6.588;2023-07-29T04:25:42;100585.81;;;20.27;75.97
76260;BME280;65076;52.362;6.588;2023-07-29T04:28:10;100585.50;;;20.11;75.45
76260;BME280;65076;52.362;6.588;2023-07-29T04:30:38;100582.81;;;20.30;75.19
76260;BME280;65076;52.362;6.588;2023-07-29T04:33:05;100594.03;;;19.99;75.42
76260;BME280;65076;52.362;6.588;2023-07-29T04:35:33;100585.50;;;20.21;75.39
76260;BME280;65076;52.362;6.588;2023-07-29T04:38:01;100590.41;;;19.98;75.35
76260;BME280;65076;52.362;6.588;2023-07-29T04:40:32;100584.00;;;19.58;78.00
76260;BME280;65076;52.362;6.588;2023-07-29T04:43:02;100589.69;;;20.15;76.28
76260;BME280;65076;52.362;6.588;2023-07-29T04:45:30;100588.47;;;19.89;76.69
76260;BME280;65076;52.362;6.588;2023-07-29T04:47:58;100580.19;;;19.70;76.98
76260;BME280;65076;52.362;6.588;2023-07-29T04:50:26;100576.06;;;19.55;78.26
76260;BME280;65076;52.362;6.588;2023-07-29T04:52:54;100587.34;;;19.92;76.60
76260;BME280;65076;52.362;6.588;2023-07-29T04:55:22;100592.66;;;19.53;77.79
76260;BME280;65076;52.362;6.588;2023-07-29T04:57:50;100589.56;;;19.67;77.95
76260;BME280;65076;52.362;6.588;2023-07-29T05:00:19;100591.34;;;19.78;77.59
76260;BME280;65076;52.362;6.588;2023-07-29T05:02:47;100590.63;;;19.45;78.84
76260;BME280;65076;52.362;6.588;2023-07-29T05:05:15;100588.97;;;19.64;79.05
76260;BME280;65076;52.362;6.588;2023-07-29T05:07:43;100582.34;;;19.66;78.65
76260;BME280;65076;52.362;6.588;2023-07-29T05:10:11;100577.09;;;19.63;79.16
76260;BME280;65076;52.362;6.588;2023-07-29T05:12:39;100590.75;;;19.74;78.83
76260;BME280;65076;52.362;6.588;2023-07-29T05:15:08;100578.78;;;19.45;79.81
76260;BME280;65076;52.362;6.588;2023-07-29T05:17:38;100572.81;;;19.70;79.36
76260;BME280;65076;52.362;6.588;2023-07-29T05:20:07;100576.59;;;19.79;77.70
76260;BME280;65076;52.362;6.588;2023-07-29T05:22:36;100576.25;;;19.42;79.42
76260;BME280;65076;52.362;6.588;2023-07-29T05:25:05;100566.66;;;19.87;78.28
76260;BME280;65076;52.362;6.588;2023-07-29T05:27:33;100574.66;;;19.60;78.42
76260;BME280;65076;52.362;6.588;2023-07-29T05:30:02;100587.63;;;19.88;77.61
76260;BME280;65076;52.362;6.588;2023-07-29T05:32:30;100590.53;;;19.97;77.60
76260;BME280;65076;52.362;6.588;2023-07-29T05:35:00;100600.41;;;20.09;76.16
76260;BME280;65076;52.362;6.588;2023-07-29T05:37:28;100614.06;;;19.89;77.39
76260;BME280;65076;52.362;6.588;2023-07-29T05:39:56;100620.22;;;19.72;77.72
76260;BME280;65076;52.362;6.588;2023-07-29T05:42:24;100618.53;;;19.51;78.25
76260;BME280;65076;52.362;6.588;2023-07-29T05:44:52;100623.19;;;19.60;78.93
76260;BME280;65076;52.362;6.588;2023-07-29T05:47:20;100632.84;;;19.54;80.02
76260;BME280;65076;52.362;6.588;2023-07-29T05:49:47;100629.84;;;19.57;79.30
76260;BME280;65076;52.362;6.588;2023-07-29T05:52:17;100634.59;;;19.55;79.80
76260;BME280;65076;52.362;6.588;2023-07-29T05:54:45;100629.19;;;19.74;78.39
76260;BME280;65076;52.362;6.588;2023-07-29T05:57:13;100633.22;;;20.10;77.79
76260;BME280;65076;52.362;6.588;2023-07-29T05:59:41;100636.66;;;19.93;77.39
76260;BME280;65076;52.362;6.588;2023-07-29T06:02:08;100641.94;;;19.85;77.84
76260;BME280;65076;52.362;6.588;2023-07-29T06:04:37;100630.59;;;19.99;77.00
76260;BME280;65076;52.362;6.588;2023-07-29T06:07:05;100623.38;;;20.08;76.47
76260;BME280;65076;52.362;6.588;2023-07-29T06:09:35;100623.25;;;20.09;75.70
76260;BME280;65076;52.362;6.588;2023-07-29T06:12:03;100622.97;;;20.22;75.31
76260;BME280;65076;52.362;6.588;2023-07-29T06:14:32;100627.78;;;20.29;75.99
76260;BME280;65076;52.362;6.588;2023-07-29T06:16:59;100616.44;;;20.04;76.07
76260;BME280;65076;52.362;6.588;2023-07-29T06:19:27;100624.41;;;20.16;76.19
76260;BME280;65076;52.362;6.588;2023-07-29T06:21:55;100636.03;;;19.59;77.26
76260;BME280;65076;52.362;6.588;2023-07-29T06:24:23;100645.06;;;20.11;75.35
76260;BME280;65076;52.362;6.588;2023-07-29T06:26:52;100639.97;;;19.97;75.36
76260;BME280;65076;52.362;6.588;2023-07-29T06:29:20;100650.91;;;20.27;74.59
76260;BME280;65076;52.362;6.588;2023-07-29T06:31:48;100652.44;;;20.10;75.01
76260;BME280;65076;52.362;6.588;2023-07-29T06:34:17;100659.56;;;19.82;76.82
76260;BME280;65076;52.362;6.588;2023-07-29T06:36:45;100656.00;;;19.92;76.83
76260;BME280;65076;52.362;6.588;2023-07-29T06:39:30;100656.31;;;19.98;75.20
76260;BME280;65076;52.362;6.588;2023-07-29T06:42:00;100657.69;;;20.23;74.43
76260;BME280;65076;52.362;6.588;2023-07-29T06:44:28;100650.81;;;20.38;73.51
76260;BME280;65076;52.362;6.588;2023-07-29T06:46:57;100649.75;;;20.20;73.95
76260;BME280;65076;52.362;6.588;2023-07-29T06:49:25;100654.03;;;20.53;72.83
76260;BME280;65076;52.362;6.588;2023-07-29T06:51:53;100650.19;;;20.25;73.73
76260;BME280;65076;52.362;6.588;2023-07-29T06:54:24;100650.38;;;20.33;72.88
76260;BME280;65076;52.362;6.588;2023-07-29T06:56:52;100641.22;;;20.23;74.06
76260;BME280;65076;52.362;6.588;2023-07-29T06:59:21;100645.34;;;20.48;72.95
76260;BME280;65076;52.362;6.588;2023-07-29T07:01:50;100644.69;;;20.25;72.52
76260;BME280;65076;52.362;6.588;2023-07-29T07:04:18;100658.13;;;20.78;71.31
76260;BME280;65076;52.362;6.588;2023-07-29T07:06:46;100650.19;;;21.23;68.96
76260;BME280;65076;52.362;6.588;2023-07-29T07:09:14;100643.56;;;21.62;67.84
76260;BME280;65076;52.362;6.588;2023-07-29T07:11:43;100650.06;;;22.62;63.54
76260;BME280;65076;52.362;6.588;2023-07-29T07:14:11;100656.16;;;22.38;65.79
76260;BME280;65076;52.362;6.588;2023-07-29T07:16:40;100646.16;;;23.00;63.15
76260;BME280;65076;52.362;6.588;2023-07-29T07:19:08;100642.13;;;23.12;61.28
76260;BME280;65076;52.362;6.588;2023-07-29T07:21:36;100641.69;;;23.43;59.87
76260;BME280;65076;52.362;6.588;2023-07-29T07:24:04;100639.72;;;23.35;60.50
76260;BME280;65076;52.362;6.588;2023-07-29T07:26:33;100637.19;;;23.42;61.66
76260;BME280;65076;52.362;6.588;2023-07-29T07:29:01;100644.25;;;23.88;58.67
76260;BME280;65076;52.362;6.588;2023-07-29T07:31:32;100641.56;;;23.09;60.54
76260;BME280;65076;52.362;6.588;2023-07-29T07:34:03;100640.97;;;23.41;60.09
76260;BME280;65076;52.362;6.588;2023-07-29T07:36:30;100650.94;;;22.35;63.71
76260;BME280;65076;52.362;6.588;2023-07-29T07:38:58;100650.78;;;22.82;62.81
76260;BME280;65076;52.362;6.588;2023-07-29T07:41:26;100640.72;;;23.78;61.13
76260;BME280;65076;52.362;6.588;2023-07-29T07:43:55;100639.19;;;24.51;57.00
76260;BME280;65076;52.362;6.588;2023-07-29T07:46:23;100642.84;;;24.60;57.35
76260;BME280;65076;52.362;6.588;2023-07-29T07:48:51;100650.03;;;24.28;58.46
76260;BME280;65076;52.362;6.588;2023-07-29T07:51:32;100631.53;;;25.36;54.98
76260;BME280;65076;52.362;6.588;2023-07-29T07:54:00;100639.16;;;26.21;53.10
76260;BME280;65076;52.362;6.588;2023-07-29T07:56:28;100643.81;;;26.90;50.50
76260;BME280;65076;52.362;6.588;2023-07-29T07:58:56;100658.75;;;26.20;50.66
76260;BME280;65076;52.362;6.588;2023-07-29T08:01:24;100653.94;;;25.97;51.62
76260;BME280;65076;52.362;6.588;2023-07-29T08:03:52;100653.69;;;25.68;52.42
76260;BME280;65076;52.362;6.588;2023-07-29T08:06:20;100659.00;;;25.94;52.85
76260;BME280;65076;52.362;6.588;2023-07-29T08:08:49;100656.28;;;25.37;53.85
76260;BME280;65076;52.362;6.588;2023-07-29T08:11:17;100648.31;;;25.75;52.84
76260;BME280;65076;52.362;6.588;2023-07-29T08:13:45;100663.09;;;24.76;54.99
76260;BME280;65076;52.362;6.588;2023-07-29T08:16:13;100658.50;;;24.93;55.69
76260;BME280;65076;52.362;6.588;2023-07-29T08:18:41;100659.03;;;24.38;57.42
76260;BME280;65076;52.362;6.588;2023-07-29T08:21:09;100654.53;;;24.37;57.12
76260;BME280;65076;52.362;6.588;2023-07-29T08:23:37;100653.78;;;23.93;58.67
76260;BME280;65076;52.362;6.588;2023-07-29T08:26:07;100662.84;;;24.37;57.37
76260;BME280;65076;52.362;6.588;2023-07-29T08:28:35;100646.75;;;25.23;54.70
76260;BME280;65076;52.362;6.588;2023-07-29T08:31:05;100651.59;;;25.54;54.08
76260;BME280;65076;52.362;6.588;2023-07-29T08:33:33;100656.94;;;25.96;51.86
76260;BME280;65076;52.362;6.588;2023-07-29T08:36:01;100651.09;;;25.02;55.88
76260;BME280;65076;52.362;6.588;2023-07-29T08:38:29;100655.06;;;25.23;56.08
76260;BME280;65076;52.362;6.588;2023-07-29T08:41:06;100650.03;;;25.59;53.36
76260;BME280;65076;52.362;6.588;2023-07-29T08:43:44;100654.59;;;24.54;57.12
76260;BME280;65076;52.362;6.588;2023-07-29T08:46:19;100655.03;;;24.33;57.36
76260;BME280;65076;52.362;6.588;2023-07-29T08:48:47;100645.66;;;24.26;58.00
76260;BME280;65076;52.362;6.588;2023-07-29T08:51:17;100640.91;;;24.44;57.24
76260;BME280;65076;52.362;6.588;2023-07-29T08:53:48;100642.78;;;24.01;58.36
76260;BME280;65076;52.362;6.588;2023-07-29T08:56:18;100643.06;;;24.74;57.44
76260;BME280;65076;52.362;6.588;2023-07-29T08:58:46;100633.03;;;25.79;53.47
76260;BME280;65076;52.362;6.588;2023-07-29T09:01:15;100630.81;;;26.29;52.56
76260;BME280;65076;52.362;6.588;2023-07-29T09:03:44;100635.38;;;26.22;51.52
76260;BME280;65076;52.362;6.588;2023-07-29T09:06:13;100640.13;;;25.81;52.56
76260;BME280;65076;52.362;6.588;2023-07-29T09:08:44;100647.00;;;26.48;51.88
76260;BME280;65076;52.362;6.588;2023-07-29T09:11:13;100648.16;;;26.23;50.09
76260;BME280;65076;52.362;6.588;2023-07-29T09:13:44;100643.81;;;25.41;52.65
76260;BME280;65076;52.362;6.588;2023-07-29T09:16:13;100645.97;;;24.81;53.68
76260;BME280;65076;52.362;6.588;2023-07-29T09:18:42;100638.81;;;25.37;53.10
76260;BME280;65076;52.362;6.588;2023-07-29T09:21:10;100650.06;;;26.23;51.72
76260;BME280;65076;52.362;6.588;2023-07-29T09:23:39;100651.63;;;26.25;51.92
76260;BME280;65076;52.362;6.588;2023-07-29T09:26:08;100649.50;;;25.80;51.62
76260;BME280;65076;52.362;6.588;2023-07-29T09:28:38;100653.19;;;25.32;54.50
76260;BME280;65076;52.362;6.588;2023-07-29T09:31:18;100661.81;;;25.05;55.20
76260;BME280;65076;52.362;6.588;2023-07-29T09:33:47;100661.81;;;25.13;54.72
76260;BME280;65076;52.362;6.588;2023-07-29T09:36:15;100659.91;;;25.29;53.73
76260;BME280;65076;52.362;6.588;2023-07-29T09:38:44;100660.28;;;24.60;56.03
76260;BME280;65076;52.362;6.588;2023-07-29T09:41:12;100667.50;;;24.37;56.30
76260;BME280;65076;52.362;6.588;2023-07-29T09:43:42;100666.81;;;23.75;58.22
76260;BME280;65076;52.362;6.588;2023-07-29T09:46:12;100670.50;;;23.92;58.38
76260;BME280;65076;52.362;6.588;2023-07-29T09:48:39;100671.66;;;25.07;55.60
76260;BME280;65076;52.362;6.588;2023-07-29T09:51:12;100672.94;;;24.63;54.67
76260;BME280;65076;52.362;6.588;2023-07-29T09:53:42;100668.75;;;23.57;57.40
76260;BME280;65076;52.362;6.588;2023-07-29T09:56:13;100675.88;;;23.06;60.19
76260;BME280;65076;52.362;6.588;2023-07-29T09:58:42;100668.69;;;23.31;60.11
76260;BME280;65076;52.362;6.588;2023-07-29T10:01:13;100674.94;;;22.80;61.55
76260;BME280;65076;52.362;6.588;2023-07-29T10:03:42;100669.84;;;23.03;61.07
76260;BME280;65076;52.362;6.588;2023-07-29T10:06:11;100677.06;;;23.04;61.78
76260;BME280;65076;52.362;6.588;2023-07-29T10:08:42;100658.72;;;23.82;58.94
76260;BME280;65076;52.362;6.588;2023-07-29T10:11:11;100666.09;;;24.33;57.73
76260;BME280;65076;52.362;6.588;2023-07-29T10:13:39;100658.53;;;25.42;53.93
76260;BME280;65076;52.362;6.588;2023-07-29T10:16:10;100662.53;;;26.35;51.42
76260;BME280;65076;52.362;6.588;2023-07-29T10:18:40;100656.75;;;26.44;51.98
76260;BME280;65076;52.362;6.588;2023-07-29T10:21:11;100662.19;;;25.58;52.56
76260;BME280;65076;52.362;6.588;2023-07-29T10:23:43;100655.25;;;25.62;53.32
76260;BME280;65076;52.362;6.588;2023-07-29T10:26:19;100649.03;;;25.12;53.80
76260;BME280;65076;52.362;6.588;2023-07-29T10:28:52;100656.28;;;25.05;53.99
76260;BME280;65076;52.362;6.588;2023-07-29T10:31:25;100657.06;;;24.73;54.81
76260;BME280;65076;52.362;6.588;2023-07-29T10:33:54;100652.56;;;24.22;57.08
76260;BME280;65076;52.362;6.588;2023-07-29T10:36:23;100661.41;;;24.25;57.73
76260;BME280;65076;52.362;6.588;2023-07-29T10:38:52;100655.22;;;24.05;57.16
76260;BME280;65076;52.362;6.588;2023-07-29T10:41:22;100656.25;;;23.71;59.50
76260;BME280;65076;52.362;6.588;2023-07-29T10:43:50;100655.00;;;24.25;57.44
76260;BME280;65076;52.362;6.588;2023-07-29T10:46:19;100655.88;;;24.25;57.25
76260;BME280;65076;52.362;6.588;2023-07-29T10:48:53;100660.66;;;24.57;56.45
76260;BME280;65076;52.362;6.588;2023-07-29T10:51:28;100652.38;;;24.73;56.05
76260;BME280;65076;52.362;6.588;2023-07-29T10:54:00;100658.16;;;23.70;58.13
76260;BME280;65076;52.362;6.588;2023-07-29T10:56:31;100672.75;;;23.45;59.44
76260;BME280;65076;52.362;6.588;2023-07-29T10:59:31;100655.91;;;23.48;60.16
76260;BME280;65076;52.362;6.588;2023-07-29T11:02:01;100655.78;;;23.40;59.72
76260;BME280;65076;52.362;6.588;2023-07-29T11:04:30;100665.53;;;23.26;59.58
76260;BME280;65076;52.362;6.588;2023-07-29T11:07:18;100669.34;;;23.07;60.71
76260;BME280;65076;52.362;6.588;2023-07-29T11:10:00;100661.66;;;23.37;59.50
76260;BME280;65076;52.362;6.588;2023-07-29T11:12:38;100653.88;;;23.50;59.53
76260;BME280;65076;52.362;6.588;2023-07-29T11:15:16;100650.56;;;24.06;57.84
76260;BME280;65076;52.362;6.588;2023-07-29T11:17:50;100663.16;;;24.34;57.94
76260;BME280;65076;52.362;6.588;2023-07-29T11:20:20;100656.22;;;24.30;57.21
76260;BME280;65076;52.362;6.588;2023-07-29T11:22:50;100652.34;;;24.49;56.14
76260;BME280;65076;52.362;6.588;2023-07-29T11:25:19;100660.03;;;24.03;55.85
76260;BME280;65076;52.362;6.588;2023-07-29T11:27:51;100657.75;;;23.65;57.00
76260;BME280;65076;52.362;6.588;2023-07-29T11:30:21;100652.81;;;23.51;57.36
76260;BME280;65076;52.362;6.588;2023-07-29T11:32:50;100659.16;;;23.26;57.89
76260;BME280;65076;52.362;6.588;2023-07-29T11:35:18;100666.34;;;23.01;59.51
76260;BME280;65076;52.362;6.588;2023-07-29T11:37:47;100672.25;;;23.06;62.74
76260;BME280;65076;52.362;6.588;2023-07-29T11:40:18;100678.91;;;22.50;65.70
76260;BME280;65076;52.362;6.588;2023-07-29T11:42:48;100670.38;;;22.61;67.00
76260;BME280;65076;52.362;6.588;2023-07-29T11:45:18;100672.81;;;22.92;67.20
76260;BME280;65076;52.362;6.588;2023-07-29T11:48:01;100677.56;;;22.82;67.83
76260;BME280;65076;52.362;6.588;2023-07-29T11:50:29;100674.72;;;22.91;69.04
76260;BME280;65076;52.362;6.588;2023-07-29T11:52:57;100670.47;;;23.40;66.61
76260;BME280;65076;52.362;6.588;2023-07-29T11:55:26;100671.69;;;23.38;66.34
76260;BME280;65076;52.362;6.588;2023-07-29T11:57:54;100670.09;;;23.35;64.06
76260;BME280;65076;52.362;6.588;2023-07-29T12:00:23;100658.53;;;23.14;62.96
76260;BME280;65076;52.362;6.588;2023-07-29T12:02:53;100665.31;;;22.84;64.77
76260;BME280;65076;52.362;6.588;2023-07-29T12:05:22;100653.22;;;23.20;63.01
76260;BME280;65076;52.362;6.588;2023-07-29T12:07:52;100656.16;;;23.19;63.07
76260;BME280;65076;52.362;6.588;2023-07-29T12:10:20;100649.09;;;23.86;60.27
76260;BME280;65076;52.362;6.588;2023-07-29T12:12:50;100652.78;;;24.28;59.94
76260;BME280;65076;52.362;6.588;2023-07-29T12:15:26;100634.50;;;24.10;59.79
76260;BME280;65076;52.362;6.588;2023-07-29T12:17:57;100642.78;;;25.10;57.24
76260;BME280;65076;52.362;6.588;2023-07-29T12:20:27;100641.56;;;25.37;58.55
76260;BME280;65076;52.362;6.588;2023-07-29T12:22:58;100649.69;;;25.79;56.79
76260;BME280;65076;52.362;6.588;2023-07-29T12:25:29;100643.03;;;26.04;52.68
76260;BME280;65076;52.362;6.588;2023-07-29T12:28:02;100645.56;;;26.13;53.27
76260;BME280;65076;52.362;6.588;2023-07-29T12:30:32;100644.31;;;25.28;54.64
76260;BME280;65076;52.362;6.588;2023-07-29T12:33:00;100655.56;;;25.76;53.92
76260;BME280;65076;52.362;6.588;2023-07-29T12:35:36;100650.41;;;25.32;54.68
76260;BME280;65076;52.362;6.588;2023-07-29T12:38:04;100651.78;;;25.04;56.46
76260;BME280;65076;52.362;6.588;2023-07-29T12:40:38;100661.00;;;24.62;57.45
76260;BME280;65076;52.362;6.588;2023-07-29T12:43:08;100668.03;;;24.40;57.90
76260;BME280;65076;52.362;6.588;2023-07-29T12:45:38;100671.44;;;24.34;56.84
76260;BME280;65076;52.362;6.588;2023-07-29T12:48:08;100658.72;;;24.16;58.41
76260;BME280;65076;52.362;6.588;2023-07-29T12:50:36;100671.84;;;23.80;59.12
76260;BME280;65076;52.362;6.588;2023-07-29T12:53:06;100676.00;;;23.58;60.84
76260;BME280;65076;52.362;6.588;2023-07-29T12:55:36;100675.00;;;23.93;62.42
76260;BME280;65076;52.362;6.588;2023-07-29T12:58:04;100669.59;;;23.83;60.52
76260;BME280;65076;52.362;6.588;2023-07-29T13:00:32;100666.41;;;24.22;62.13
76260;BME280;65076;52.362;6.588;2023-07-29T13:03:02;100664.19;;;23.74;63.13